Rickenbacker International Airport Columbus US
ICAO: KLCK
IATA: LCK
Category: Large
Scheduled Services: No

Elevation: 744 ft
TransAlt. 18000 ft.

Airport Communications:
COLUMBUS APP:119.15
AWOS 3:132.75
COLUMBUS DEP:123.8
GND:121.85
ARNG OPS:36.7
COMD POST:23.88
RICK TWR:120.05
UNICOM:122.95

KLCK Zoom In..

If you have problems with the map follow the link
https://www.worldairports.se/pages/airport.php?
ICAO=KLCK

Runways:

(A) RW 05L length 11902 ft width 150 ft
ILS 110.55 / hdg 52

(B) RW 05R length 12102 ft width 200 ft
ILS 110.10 / hdg 52

(C) RW 23L length 12102 ft width 200 ft
ILS 110.10 / hdg 232

(D) RW 23R length 11902 ft width 150 ft
---- / hdg 232

Location; KLCK
Day. 05 / Time. 21.55 Zulu
* Altimeter: 30.09
* Temperature: 05° c. 41°f.
* Wind from: 200° Speed 05 kn.
Dewpoint: -03° c.
Visibility: 10 Statute Miles.
Clouds: Clear (automated report).

KLCK 052155Z AUTO 20005KT 10SM CLR 05/M03 A3009 RMK AO2 T00491035


Wind From 200°
Speed 05 kn.

 
 
jpsmedia worldairports.se 2019   terms of use